sensor_id;sensor_type;location;lat;lon;timestamp;temperature;humidity
40702;DHT22;26387;50.114;8.662;2022-09-09T00:02:10;20.20;81.60
40702;DHT22;26387;50.114;8.662;2022-09-09T00:04:37;20.20;81.80
40702;DHT22;26387;50.114;8.662;2022-09-09T00:10:00;20.20;81.50
40702;DHT22;26387;50.114;8.662;2022-09-09T00:12:36;20.20;81.70
40702;DHT22;26387;50.114;8.662;2022-09-09T00:15:11;20.20;81.30
40702;DHT22;26387;50.114;8.662;2022-09-09T00:20:27;20.20;81.80
40702;DHT22;26387;50.114;8.662;2022-09-09T00:23:03;20.10;82.00
40702;DHT22;26387;50.114;8.662;2022-09-09T00:25:34;20.10;82.20
40702;DHT22;26387;50.114;8.662;2022-09-09T00:28:02;19.90;82.30
40702;DHT22;26387;50.114;8.662;2022-09-09T00:30:34;19.90;82.60
40702;DHT22;26387;50.114;8.662;2022-09-09T00:33:01;19.90;82.80
40702;DHT22;26387;50.114;8.662;2022-09-09T00:35:30;19.90;83.10
40702;DHT22;26387;50.114;8.662;2022-09-09T00:37:59;19.90;83.30
40702;DHT22;26387;50.114;8.662;2022-09-09T00:40:35;19.80;83.80
40702;DHT22;26387;50.114;8.662;2022-09-09T00:48:14;19.70;84.40
40702;DHT22;26387;50.114;8.662;2022-09-09T00:50:53;19.60;84.80
40702;DHT22;26387;50.114;8.662;2022-09-09T00:53:33;19.60;85.00
40702;DHT22;26387;50.114;8.662;2022-09-09T00:58:30;19.50;85.50
40702;DHT22;26387;50.114;8.662;2022-09-09T01:01:07;19.40;85.70
40702;DHT22;26387;50.114;8.662;2022-09-09T01:03:49;19.40;85.90
40702;DHT22;26387;50.114;8.662;2022-09-09T01:06:37;19.30;86.50
40702;DHT22;26387;50.114;8.662;2022-09-09T01:12:23;19.30;86.40
40702;DHT22;26387;50.114;8.662;2022-09-09T01:16:51;19.30;87.00
40702;DHT22;26387;50.114;8.662;2022-09-09T01:19:24;19.20;86.90
40702;DHT22;26387;50.114;8.662;2022-09-09T01:21:55;19.20;87.10
40702;DHT22;26387;50.114;8.662;2022-09-09T01:24:25;19.20;87.40
40702;DHT22;26387;50.114;8.662;2022-09-09T01:26:52;19.20;87.50
40702;DHT22;26387;50.114;8.662;2022-09-09T01:29:20;19.20;87.60
40702;DHT22;26387;50.114;8.662;2022-09-09T01:34:21;19.10;87.80
40702;DHT22;26387;50.114;8.662;2022-09-09T01:36:49;19.10;87.90
40702;DHT22;26387;50.114;8.662;2022-09-09T01:39:17;19.10;88.30
40702;DHT22;26387;50.114;8.662;2022-09-09T01:41:42;19.20;88.20
40702;DHT22;26387;50.114;8.662;2022-09-09T01:44:08;19.10;88.50
40702;DHT22;26387;50.114;8.662;2022-09-09T01:46:35;19.10;88.50
40702;DHT22;26387;50.114;8.662;2022-09-09T01:49:00;19.00;88.70
40702;DHT22;26387;50.114;8.662;2022-09-09T01:51:27;19.00;88.90
40702;DHT22;26387;50.114;8.662;2022-09-09T01:53:52;19.10;88.70
40702;DHT22;26387;50.114;8.662;2022-09-09T01:59:07;19.10;89.10
40702;DHT22;26387;50.114;8.662;2022-09-09T02:04:05;19.10;89.10
40702;DHT22;26387;50.114;8.662;2022-09-09T02:06:34;19.10;89.40
40702;DHT22;26387;50.114;8.662;2022-09-09T02:09:01;19.10;88.80
40702;DHT22;26387;50.114;8.662;2022-09-09T02:11:27;19.10;89.10
40702;DHT22;26387;50.114;8.662;2022-09-09T02:13:55;19.10;89.10
40702;DHT22;26387;50.114;8.662;2022-09-09T02:16:23;19.20;89.10
40702;DHT22;26387;50.114;8.662;2022-09-09T02:18:53;19.20;88.90
40702;DHT22;26387;50.114;8.662;2022-09-09T02:21:20;19.30;88.80
40702;DHT22;26387;50.114;8.662;2022-09-09T02:23:47;19.30;88.70
40702;DHT22;26387;50.114;8.662;2022-09-09T02:26:17;19.20;89.00
40702;DHT22;26387;50.114;8.662;2022-09-09T02:28:50;19.30;89.20
40702;DHT22;26387;50.114;8.662;2022-09-09T02:31:19;19.30;89.10
40702;DHT22;26387;50.114;8.662;2022-09-09T02:33:48;19.40;88.60
40702;DHT22;26387;50.114;8.662;2022-09-09T02:36:16;19.40;88.50
40702;DHT22;26387;50.114;8.662;2022-09-09T02:38:44;19.40;88.40
40702;DHT22;26387;50.114;8.662;2022-09-09T02:41:10;19.50;88.20
40702;DHT22;26387;50.114;8.662;2022-09-09T02:43:36;19.50;88.10
40702;DHT22;26387;50.114;8.662;2022-09-09T02:46:27;19.60;88.10
40702;DHT22;26387;50.114;8.662;2022-09-09T02:51:45;19.70;87.80
40702;DHT22;26387;50.114;8.662;2022-09-09T02:56:43;19.60;87.70
40702;DHT22;26387;50.114;8.662;2022-09-09T02:59:11;19.50;87.80
40702;DHT22;26387;50.114;8.662;2022-09-09T03:01:36;19.50;88.30
40702;DHT22;26387;50.114;8.662;2022-09-09T03:04:04;19.50;88.60
40702;DHT22;26387;50.114;8.662;2022-09-09T03:06:30;19.40;88.50
40702;DHT22;26387;50.114;8.662;2022-09-09T03:08:56;19.40;89.00
40702;DHT22;26387;50.114;8.662;2022-09-09T03:11:26;19.40;89.00
40702;DHT22;26387;50.114;8.662;2022-09-09T03:13:53;19.40;89.10
40702;DHT22;26387;50.114;8.662;2022-09-09T03:16:20;19.40;89.20
40702;DHT22;26387;50.114;8.662;2022-09-09T03:18:47;19.40;89.40
40702;DHT22;26387;50.114;8.662;2022-09-09T03:21:12;19.40;89.30
40702;DHT22;26387;50.114;8.662;2022-09-09T03:23:38;19.30;89.60
40702;DHT22;26387;50.114;8.662;2022-09-09T03:26:03;19.30;89.60
40702;DHT22;26387;50.114;8.662;2022-09-09T03:28:28;19.20;89.90
40702;DHT22;26387;50.114;8.662;2022-09-09T03:31:00;19.20;89.80
40702;DHT22;26387;50.114;8.662;2022-09-09T03:33:25;19.10;89.90
40702;DHT22;26387;50.114;8.662;2022-09-09T03:35:51;19.00;90.10
40702;DHT22;26387;50.114;8.662;2022-09-09T03:38:16;19.00;90.20
40702;DHT22;26387;50.114;8.662;2022-09-09T03:40:49;19.00;90.30
40702;DHT22;26387;50.114;8.662;2022-09-09T03:43:14;19.00;90.40
40702;DHT22;26387;50.114;8.662;2022-09-09T03:45:45;19.00;90.40
40702;DHT22;26387;50.114;8.662;2022-09-09T03:48:12;19.10;90.40
40702;DHT22;26387;50.114;8.662;2022-09-09T03:50:38;19.00;90.40
40702;DHT22;26387;50.114;8.662;2022-09-09T03:53:03;19.00;90.30
40702;DHT22;26387;50.114;8.662;2022-09-09T03:55:29;19.00;90.30
40702;DHT22;26387;50.114;8.662;2022-09-09T03:57:54;19.10;90.40
40702;DHT22;26387;50.114;8.662;2022-09-09T04:00:19;19.10;90.40
40702;DHT22;26387;50.114;8.662;2022-09-09T04:02:45;19.00;90.60
40702;DHT22;26387;50.114;8.662;2022-09-09T04:05:11;19.00;90.60
40702;DHT22;26387;50.114;8.662;2022-09-09T04:07:36;19.10;90.60
40702;DHT22;26387;50.114;8.662;2022-09-09T04:10:02;19.10;90.30
40702;DHT22;26387;50.114;8.662;2022-09-09T04:12:27;19.10;90.20
40702;DHT22;26387;50.114;8.662;2022-09-09T04:14:53;19.10;90.30
40702;DHT22;26387;50.114;8.662;2022-09-09T04:17:18;19.10;90.20
40702;DHT22;26387;50.114;8.662;2022-09-09T04:19:43;19.10;90.20
40702;DHT22;26387;50.114;8.662;2022-09-09T04:22:09;19.10;90.20
40702;DHT22;26387;50.114;8.662;2022-09-09T04:24:34;19.10;90.20
40702;DHT22;26387;50.114;8.662;2022-09-09T04:27:00;19.10;90.20
40702;DHT22;26387;50.114;8.662;2022-09-09T04:29:26;19.10;90.20
40702;DHT22;26387;50.114;8.662;2022-09-09T04:31:51;19.10;90.30
40702;DHT22;26387;50.114;8.662;2022-09-09T04:34:18;19.00;90.30
40702;DHT22;26387;50.114;8.662;2022-09-09T04:36:43;19.00;90.40
40702;DHT22;26387;50.114;8.662;2022-09-09T04:39:09;19.00;90.50
40702;DHT22;26387;50.114;8.662;2022-09-09T04:41:34;19.00;90.60
40702;DHT22;26387;50.114;8.662;2022-09-09T04:44:00;19.00;90.60
40702;DHT22;26387;50.114;8.662;2022-09-09T04:46:26;19.00;90.50
40702;DHT22;26387;50.114;8.662;2022-09-09T04:48:51;19.00;90.80
40702;DHT22;26387;50.114;8.662;2022-09-09T04:51:17;19.00;90.70
40702;DHT22;26387;50.114;8.662;2022-09-09T04:53:43;19.00;90.90
40702;DHT22;26387;50.114;8.662;2022-09-09T04:56:10;18.90;90.70
40702;DHT22;26387;50.114;8.662;2022-09-09T04:58:35;18.90;90.80
40702;DHT22;26387;50.114;8.662;2022-09-09T05:01:03;18.90;90.90
40702;DHT22;26387;50.114;8.662;2022-09-09T05:03:28;18.80;90.90
40702;DHT22;26387;50.114;8.662;2022-09-09T05:05:54;18.80;91.00
40702;DHT22;26387;50.114;8.662;2022-09-09T05:08:19;18.90;91.10
40702;DHT22;26387;50.114;8.662;2022-09-09T05:10:47;18.80;91.00
40702;DHT22;26387;50.114;8.662;2022-09-09T05:13:13;18.90;91.00
40702;DHT22;26387;50.114;8.662;2022-09-09T05:15:39;18.90;90.90
40702;DHT22;26387;50.114;8.662;2022-09-09T05:18:04;18.90;90.90
40702;DHT22;26387;50.114;8.662;2022-09-09T05:20:30;18.90;91.00
40702;DHT22;26387;50.114;8.662;2022-09-09T05:22:55;19.00;90.80
40702;DHT22;26387;50.114;8.662;2022-09-09T05:25:21;19.00;90.70
40702;DHT22;26387;50.114;8.662;2022-09-09T05:27:47;19.00;90.80
40702;DHT22;26387;50.114;8.662;2022-09-09T05:30:12;19.00;90.90
40702;DHT22;26387;50.114;8.662;2022-09-09T05:32:38;19.00;90.90
40702;DHT22;26387;50.114;8.662;2022-09-09T05:35:04;19.00;90.80
40702;DHT22;26387;50.114;8.662;2022-09-09T05:37:30;19.00;90.80
40702;DHT22;26387;50.114;8.662;2022-09-09T05:39:56;19.00;91.00
40702;DHT22;26387;50.114;8.662;2022-09-09T05:42:21;19.10;90.90
40702;DHT22;26387;50.114;8.662;2022-09-09T05:44:47;19.10;90.90
40702;DHT22;26387;50.114;8.662;2022-09-09T05:47:12;19.20;90.80
40702;DHT22;26387;50.114;8.662;2022-09-09T05:49:38;19.30;90.70
40702;DHT22;26387;50.114;8.662;2022-09-09T05:52:03;19.40;90.50
40702;DHT22;26387;50.114;8.662;2022-09-09T05:54:29;19.50;90.30
40702;DHT22;26387;50.114;8.662;2022-09-09T05:56:55;19.50;90.20
40702;DHT22;26387;50.114;8.662;2022-09-09T05:59:20;19.60;90.20
40702;DHT22;26387;50.114;8.662;2022-09-09T06:01:48;19.60;90.10
40702;DHT22;26387;50.114;8.662;2022-09-09T06:04:13;19.60;90.20
40702;DHT22;26387;50.114;8.662;2022-09-09T06:06:39;19.60;90.10
40702;DHT22;26387;50.114;8.662;2022-09-09T06:09:06;19.60;90.10
40702;DHT22;26387;50.114;8.662;2022-09-09T06:11:35;19.60;90.00
40702;DHT22;26387;50.114;8.662;2022-09-09T06:14:01;19.70;89.90
40702;DHT22;26387;50.114;8.662;2022-09-09T06:16:27;19.70;89.80
40702;DHT22;26387;50.114;8.662;2022-09-09T06:18:53;19.80;89.30
40702;DHT22;26387;50.114;8.662;2022-09-09T06:21:30;19.80;89.10
40702;DHT22;26387;50.114;8.662;2022-09-09T06:23:56;19.70;89.20
40702;DHT22;26387;50.114;8.662;2022-09-09T06:26:22;19.70;89.10
40702;DHT22;26387;50.114;8.662;2022-09-09T06:28:49;19.70;89.30
40702;DHT22;26387;50.114;8.662;2022-09-09T06:31:15;19.60;89.50
40702;DHT22;26387;50.114;8.662;2022-09-09T06:33:47;19.50;89.60
40702;DHT22;26387;50.114;8.662;2022-09-09T06:36:15;19.50;89.60
40702;DHT22;26387;50.114;8.662;2022-09-09T06:38:41;19.40;89.80
40702;DHT22;26387;50.114;8.662;2022-09-09T06:41:08;19.40;90.20
40702;DHT22;26387;50.114;8.662;2022-09-09T06:43:34;19.50;89.70
40702;DHT22;26387;50.114;8.662;2022-09-09T06:48:28;19.70;89.20
40702;DHT22;26387;50.114;8.662;2022-09-09T06:51:03;19.80;88.70
40702;DHT22;26387;50.114;8.662;2022-09-09T06:53:28;19.90;88.40
40702;DHT22;26387;50.114;8.662;2022-09-09T06:55:54;20.00;87.50
40702;DHT22;26387;50.114;8.662;2022-09-09T06:58:20;20.00;87.50
40702;DHT22;26387;50.114;8.662;2022-09-09T07:00:47;20.00;87.50
40702;DHT22;26387;50.114;8.662;2022-09-09T07:03:13;20.10;87.40
40702;DHT22;26387;50.114;8.662;2022-09-09T07:05:38;20.10;87.20
40702;DHT22;26387;50.114;8.662;2022-09-09T07:08:04;20.10;86.70
40702;DHT22;26387;50.114;8.662;2022-09-09T07:10:29;20.00;87.00
40702;DHT22;26387;50.114;8.662;2022-09-09T07:12:55;20.10;87.00
40702;DHT22;26387;50.114;8.662;2022-09-09T07:15:20;20.10;86.60
40702;DHT22;26387;50.114;8.662;2022-09-09T07:17:48;20.10;86.40
40702;DHT22;26387;50.114;8.662;2022-09-09T07:20:14;20.20;86.40
40702;DHT22;26387;50.114;8.662;2022-09-09T07:22:40;20.20;86.10
40702;DHT22;26387;50.114;8.662;2022-09-09T07:25:05;20.30;85.80
40702;DHT22;26387;50.114;8.662;2022-09-09T07:27:31;20.40;85.80
40702;DHT22;26387;50.114;8.662;2022-09-09T07:29:56;20.30;85.50
40702;DHT22;26387;50.114;8.662;2022-09-09T07:32:22;20.30;85.60
40702;DHT22;26387;50.114;8.662;2022-09-09T07:34:48;20.20;85.30
40702;DHT22;26387;50.114;8.662;2022-09-09T07:37:15;20.20;86.00
40702;DHT22;26387;50.114;8.662;2022-09-09T07:39:41;20.30;85.70
40702;DHT22;26387;50.114;8.662;2022-09-09T07:42:07;20.30;85.60
40702;DHT22;26387;50.114;8.662;2022-09-09T07:44:33;20.40;85.60
40702;DHT22;26387;50.114;8.662;2022-09-09T07:47:01;20.40;85.40
40702;DHT22;26387;50.114;8.662;2022-09-09T07:49:27;20.60;85.00
40702;DHT22;26387;50.114;8.662;2022-09-09T07:51:52;20.70;84.60
40702;DHT22;26387;50.114;8.662;2022-09-09T07:54:18;20.70;84.40
40702;DHT22;26387;50.114;8.662;2022-09-09T07:56:46;20.70;84.80
40702;DHT22;26387;50.114;8.662;2022-09-09T07:59:12;20.60;84.80
40702;DHT22;26387;50.114;8.662;2022-09-09T08:01:39;20.60;84.80
40702;DHT22;26387;50.114;8.662;2022-09-09T08:04:05;20.60;84.60
40702;DHT22;26387;50.114;8.662;2022-09-09T08:06:34;20.60;85.10
40702;DHT22;26387;50.114;8.662;2022-09-09T08:09:00;20.50;84.80
40702;DHT22;26387;50.114;8.662;2022-09-09T08:11:26;20.50;84.90
40702;DHT22;26387;50.114;8.662;2022-09-09T08:13:52;20.50;85.20
40702;DHT22;26387;50.114;8.662;2022-09-09T08:16:22;20.50;85.20
40702;DHT22;26387;50.114;8.662;2022-09-09T08:18:51;20.60;85.30
40702;DHT22;26387;50.114;8.662;2022-09-09T08:21:21;20.70;84.90
40702;DHT22;26387;50.114;8.662;2022-09-09T08:23:47;20.80;84.60
40702;DHT22;26387;50.114;8.662;2022-09-09T08:26:17;20.90;84.10
40702;DHT22;26387;50.114;8.662;2022-09-09T08:28:44;20.90;83.80
40702;DHT22;26387;50.114;8.662;2022-09-09T08:31:13;21.00;83.40
40702;DHT22;26387;50.114;8.662;2022-09-09T08:33:40;21.00;83.70
40702;DHT22;26387;50.114;8.662;2022-09-09T08:36:06;21.10;83.70
40702;DHT22;26387;50.114;8.662;2022-09-09T08:38:34;21.20;82.50
40702;DHT22;26387;50.114;8.662;2022-09-09T08:41:04;21.20;82.50
40702;DHT22;26387;50.114;8.662;2022-09-09T08:43:32;21.40;82.70
40702;DHT22;26387;50.114;8.662;2022-09-09T08:46:05;21.50;82.40
40702;DHT22;26387;50.114;8.662;2022-09-09T08:51:07;21.60;81.00
40702;DHT22;26387;50.114;8.662;2022-09-09T08:53:51;21.50;81.00
40702;DHT22;26387;50.114;8.662;2022-09-09T08:56:18;21.50;81.50
40702;DHT22;26387;50.114;8.662;2022-09-09T08:58:47;21.50;81.10
40702;DHT22;26387;50.114;8.662;2022-09-09T09:01:22;21.50;80.80
40702;DHT22;26387;50.114;8.662;2022-09-09T09:06:48;21.90;80.70
40702;DHT22;26387;50.114;8.662;2022-09-09T09:11:54;21.90;79.60
40702;DHT22;26387;50.114;8.662;2022-09-09T09:14:21;22.00;79.60
40702;DHT22;26387;50.114;8.662;2022-09-09T09:17:02;22.00;79.60
40702;DHT22;26387;50.114;8.662;2022-09-09T09:19:29;21.90;78.80
40702;DHT22;26387;50.114;8.662;2022-09-09T09:22:00;21.90;78.60
40702;DHT22;26387;50.114;8.662;2022-09-09T09:26:58;22.10;78.30
40702;DHT22;26387;50.114;8.662;2022-09-09T09:29:26;22.10;77.50
40702;DHT22;26387;50.114;8.662;2022-09-09T09:31:52;22.20;78.10
40702;DHT22;26387;50.114;8.662;2022-09-09T09:34:19;22.10;79.00
40702;DHT22;26387;50.114;8.662;2022-09-09T09:36:46;22.20;79.10
40702;DHT22;26387;50.114;8.662;2022-09-09T09:39:27;22.20;79.00
40702;DHT22;26387;50.114;8.662;2022-09-09T09:41:53;22.20;79.20
40702;DHT22;26387;50.114;8.662;2022-09-09T09:46:48;22.30;79.40
40702;DHT22;26387;50.114;8.662;2022-09-09T09:49:13;22.30;77.80
40702;DHT22;26387;50.114;8.662;2022-09-09T09:51:39;22.20;77.70
40702;DHT22;26387;50.114;8.662;2022-09-09T09:54:27;22.30;79.60
40702;DHT22;26387;50.114;8.662;2022-09-09T09:56:54;22.20;80.10
40702;DHT22;26387;50.114;8.662;2022-09-09T09:59:20;22.10;82.20
40702;DHT22;26387;50.114;8.662;2022-09-09T10:01:46;22.00;82.40
40702;DHT22;26387;50.114;8.662;2022-09-09T10:04:19;21.70;83.10
40702;DHT22;26387;50.114;8.662;2022-09-09T10:06:46;21.70;83.50
40702;DHT22;26387;50.114;8.662;2022-09-09T10:09:22;21.80;83.90
40702;DHT22;26387;50.114;8.662;2022-09-09T10:14:47;22.00;83.60
40702;DHT22;26387;50.114;8.662;2022-09-09T10:20:04;22.50;83.50
40702;DHT22;26387;50.114;8.662;2022-09-09T10:22:35;22.90;80.00
40702;DHT22;26387;50.114;8.662;2022-09-09T10:25:21;22.90;80.40
40702;DHT22;26387;50.114;8.662;2022-09-09T10:30:28;23.20;79.10
40702;DHT22;26387;50.114;8.662;2022-09-09T10:33:02;23.40;77.90
40702;DHT22;26387;50.114;8.662;2022-09-09T10:35:33;23.50;77.40
40702;DHT22;26387;50.114;8.662;2022-09-09T10:38:13;23.60;76.90
40702;DHT22;26387;50.114;8.662;2022-09-09T10:53:14;23.50;74.90
40702;DHT22;26387;50.114;8.662;2022-09-09T11:00:43;23.30;76.10
40702;DHT22;26387;50.114;8.662;2022-09-09T11:03:21;22.90;78.00
40702;DHT22;26387;50.114;8.662;2022-09-09T11:05:55;22.80;77.20
40702;DHT22;26387;50.114;8.662;2022-09-09T11:16:39;22.70;79.00
40702;DHT22;26387;50.114;8.662;2022-09-09T11:18:37;22.70;76.30
40702;DHT22;26387;50.114;8.662;2022-09-09T11:21:05;22.90;76.40
40702;DHT22;26387;50.114;8.662;2022-09-09T11:23:42;23.00;75.20
40702;DHT22;26387;50.114;8.662;2022-09-09T11:26:12;23.00;75.60
40702;DHT22;26387;50.114;8.662;2022-09-09T11:31:46;23.30;73.30
40702;DHT22;26387;50.114;8.662;2022-09-09T11:34:34;23.30;74.70
40702;DHT22;26387;50.114;8.662;2022-09-09T11:44:39;23.50;70.80
40702;DHT22;26387;50.114;8.662;2022-09-09T11:47:15;23.70;67.30
40702;DHT22;26387;50.114;8.662;2022-09-09T11:49:41;23.80;68.80
40702;DHT22;26387;50.114;8.662;2022-09-09T11:52:11;23.90;67.60
40702;DHT22;26387;50.114;8.662;2022-09-09T11:54:44;23.90;65.30
40702;DHT22;26387;50.114;8.662;2022-09-09T11:59:55;23.80;65.20
40702;DHT22;26387;50.114;8.662;2022-09-09T12:02:25;23.60;64.60
40702;DHT22;26387;50.114;8.662;2022-09-09T12:04:56;23.50;65.30
40702;DHT22;26387;50.114;8.662;2022-09-09T12:07:41;23.40;67.00
40702;DHT22;26387;50.114;8.662;2022-09-09T12:12:46;23.50;66.80
40702;DHT22;26387;50.114;8.662;2022-09-09T12:17:44;24.00;67.70
40702;DHT22;26387;50.114;8.662;2022-09-09T12:22:57;24.40;65.80
40702;DHT22;26387;50.114;8.662;2022-09-09T12:25:34;24.60;64.60
40702;DHT22;26387;50.114;8.662;2022-09-09T12:33:16;24.40;63.30
40702;DHT22;26387;50.114;8.662;2022-09-09T12:35:42;24.40;64.00
40702;DHT22;26387;50.114;8.662;2022-09-09T12:38:12;24.30;64.60
40702;DHT22;26387;50.114;8.662;2022-09-09T12:40:38;24.20;64.40
40702;DHT22;26387;50.114;8.662;2022-09-09T12:43:18;24.20;64.40
40702;DHT22;26387;50.114;8.662;2022-09-09T12:45:44;24.10;64.00
40702;DHT22;26387;50.114;8.662;2022-09-09T12:48:10;23.90;65.20
40702;DHT22;26387;50.114;8.662;2022-09-09T12:50:38;23.70;65.90
40702;DHT22;26387;50.114;8.662;2022-09-09T12:53:10;23.20;75.40
40702;DHT22;26387;50.114;8.662;2022-09-09T12:55:36;22.60;73.20
40702;DHT22;26387;50.114;8.662;2022-09-09T12:58:03;21.90;76.50
40702;DHT22;26387;50.114;8.662;2022-09-09T13:00:30;21.70;79.80
40702;DHT22;26387;50.114;8.662;2022-09-09T13:02:57;21.60;83.10
40702;DHT22;26387;50.114;8.662;2022-09-09T13:05:25;21.50;83.60
40702;DHT22;26387;50.114;8.662;2022-09-09T13:07:51;21.50;85.90
40702;DHT22;26387;50.114;8.662;2022-09-09T13:10:21;21.60;87.40
40702;DHT22;26387;50.114;8.662;2022-09-09T13:12:48;21.70;85.00
40702;DHT22;26387;50.114;8.662;2022-09-09T13:15:23;21.80;86.10
40702;DHT22;26387;50.114;8.662;2022-09-09T13:17:59;21.80;82.90
40702;DHT22;26387;50.114;8.662;2022-09-09T13:20:26;21.90;87.90
40702;DHT22;26387;50.114;8.662;2022-09-09T13:22:52;21.90;86.80
40702;DHT22;26387;50.114;8.662;2022-09-09T13:25:26;21.90;84.30
40702;DHT22;26387;50.114;8.662;2022-09-09T13:30:28;22.10;86.10
40702;DHT22;26387;50.114;8.662;2022-09-09T13:40:27;23.50;77.40
40702;DHT22;26387;50.114;8.662;2022-09-09T13:42:55;27.40;67.50
40702;DHT22;26387;50.114;8.662;2022-09-09T14:19:33;41.30;35.50
40702;DHT22;26387;50.114;8.662;2022-09-09T14:21:59;35.50;39.00
40702;DHT22;26387;50.114;8.662;2022-09-09T14:26:51;33.60;40.70
40702;DHT22;26387;50.114;8.662;2022-09-09T14:29:16;30.90;45.80
40702;DHT22;26387;50.114;8.662;2022-09-09T14:31:42;29.50;46.80
40702;DHT22;26387;50.114;8.662;2022-09-09T14:34:08;28.30;46.80
40702;DHT22;26387;50.114;8.662;2022-09-09T14:36:35;27.50;49.40
40702;DHT22;26387;50.114;8.662;2022-09-09T14:39:00;26.80;51.90
40702;DHT22;26387;50.114;8.662;2022-09-09T14:41:26;26.20;53.00
40702;DHT22;26387;50.114;8.662;2022-09-09T14:43:51;25.60;54.50
40702;DHT22;26387;50.114;8.662;2022-09-09T14:48:43;24.70;56.10
40702;DHT22;26387;50.114;8.662;2022-09-09T14:53:36;24.50;58.30
40702;DHT22;26387;50.114;8.662;2022-09-09T14:56:08;24.60;58.90
40702;DHT22;26387;50.114;8.662;2022-09-09T14:58:34;24.70;58.60
40702;DHT22;26387;50.114;8.662;2022-09-09T15:03:53;25.20;57.10
40702;DHT22;26387;50.114;8.662;2022-09-09T15:06:19;25.30;58.20
40702;DHT22;26387;50.114;8.662;2022-09-09T15:08:45;25.30;57.80
40702;DHT22;26387;50.114;8.662;2022-09-09T15:11:12;25.40;58.30
40702;DHT22;26387;50.114;8.662;2022-09-09T15:13:38;25.50;57.50
40702;DHT22;26387;50.114;8.662;2022-09-09T15:16:05;25.60;56.80
40702;DHT22;26387;50.114;8.662;2022-09-09T15:18:31;25.40;56.10
40702;DHT22;26387;50.114;8.662;2022-09-09T15:21:01;25.20;56.60
40702;DHT22;26387;50.114;8.662;2022-09-09T15:23:28;24.90;57.80
40702;DHT22;26387;50.114;8.662;2022-09-09T15:28:20;24.40;58.30
40702;DHT22;26387;50.114;8.662;2022-09-09T15:30:49;24.20;59.50
40702;DHT22;26387;50.114;8.662;2022-09-09T15:33:14;24.20;59.20
40702;DHT22;26387;50.114;8.662;2022-09-09T15:35:40;24.20;59.50
40702;DHT22;26387;50.114;8.662;2022-09-09T15:43:00;24.00;60.40
40702;DHT22;26387;50.114;8.662;2022-09-09T15:45:26;23.80;61.60
40702;DHT22;26387;50.114;8.662;2022-09-09T15:47:52;23.70;62.90
40702;DHT22;26387;50.114;8.662;2022-09-09T15:50:17;23.60;62.60
40702;DHT22;26387;50.114;8.662;2022-09-09T15:52:43;23.50;62.90
40702;DHT22;26387;50.114;8.662;2022-09-09T15:55:08;23.40;64.00
40702;DHT22;26387;50.114;8.662;2022-09-09T15:57:35;23.30;63.90
40702;DHT22;26387;50.114;8.662;2022-09-09T16:00:04;23.20;64.50
40702;DHT22;26387;50.114;8.662;2022-09-09T16:02:31;23.10;64.80
40702;DHT22;26387;50.114;8.662;2022-09-09T16:04:57;22.90;64.90
40702;DHT22;26387;50.114;8.662;2022-09-09T16:07:26;22.80;66.50
40702;DHT22;26387;50.114;8.662;2022-09-09T16:09:51;22.80;65.90
40702;DHT22;26387;50.114;8.662;2022-09-09T16:12:18;22.70;66.30
40702;DHT22;26387;50.114;8.662;2022-09-09T16:14:44;22.60;67.40
40702;DHT22;26387;50.114;8.662;2022-09-09T16:17:10;22.40;68.40
40702;DHT22;26387;50.114;8.662;2022-09-09T16:19:36;22.40;68.70
40702;DHT22;26387;50.114;8.662;2022-09-09T16:22:02;22.40;69.00
40702;DHT22;26387;50.114;8.662;2022-09-09T16:24:28;22.40;69.20
40702;DHT22;26387;50.114;8.662;2022-09-09T16:26:54;22.30;70.10
40702;DHT22;26387;50.114;8.662;2022-09-09T16:29:20;22.20;70.10
40702;DHT22;26387;50.114;8.662;2022-09-09T16:31:47;22.20;70.60
40702;DHT22;26387;50.114;8.662;2022-09-09T16:34:13;22.20;70.40
40702;DHT22;26387;50.114;8.662;2022-09-09T16:36:40;22.20;70.50
40702;DHT22;26387;50.114;8.662;2022-09-09T16:39:07;22.10;70.40
40702;DHT22;26387;50.114;8.662;2022-09-09T16:41:34;22.00;70.80
40702;DHT22;26387;50.114;8.662;2022-09-09T16:44:03;22.00;70.80
40702;DHT22;26387;50.114;8.662;2022-09-09T16:46:30;22.00;70.90
40702;DHT22;26387;50.114;8.662;2022-09-09T16:48:56;21.90;70.90
40702;DHT22;26387;50.114;8.662;2022-09-09T16:51:24;21.90;70.60
40702;DHT22;26387;50.114;8.662;2022-09-09T16:53:51;21.70;70.70
40702;DHT22;26387;50.114;8.662;2022-09-09T16:56:17;21.70;71.30
40702;DHT22;26387;50.114;8.662;2022-09-09T16:58:44;21.60;71.50
40702;DHT22;26387;50.114;8.662;2022-09-09T17:01:14;21.60;72.30
40702;DHT22;26387;50.114;8.662;2022-09-09T17:03:39;21.60;72.70
40702;DHT22;26387;50.114;8.662;2022-09-09T17:06:12;21.60;72.80
40702;DHT22;26387;50.114;8.662;2022-09-09T17:08:38;21.50;73.50
40702;DHT22;26387;50.114;8.662;2022-09-09T17:11:10;21.50;73.60
40702;DHT22;26387;50.114;8.662;2022-09-09T17:13:39;21.40;74.30
40702;DHT22;26387;50.114;8.662;2022-09-09T17:16:04;21.40;74.70
40702;DHT22;26387;50.114;8.662;2022-09-09T17:18:30;21.40;74.80
40702;DHT22;26387;50.114;8.662;2022-09-09T17:21:01;21.50;75.50
40702;DHT22;26387;50.114;8.662;2022-09-09T17:23:27;21.50;75.50
40702;DHT22;26387;50.114;8.662;2022-09-09T17:25:57;21.50;75.70
40702;DHT22;26387;50.114;8.662;2022-09-09T17:28:23;21.50;75.90
40702;DHT22;26387;50.114;8.662;2022-09-09T17:30:52;21.50;76.10
40702;DHT22;26387;50.114;8.662;2022-09-09T17:33:18;21.40;76.60
40702;DHT22;26387;50.114;8.662;2022-09-09T17:35:45;21.40;76.60
40702;DHT22;26387;50.114;8.662;2022-09-09T17:38:10;21.40;76.90
40702;DHT22;26387;50.114;8.662;2022-09-09T17:40:37;21.30;77.40
40702;DHT22;26387;50.114;8.662;2022-09-09T17:43:02;21.30;77.70
40702;DHT22;26387;50.114;8.662;2022-09-09T17:45:28;21.30;78.10
40702;DHT22;26387;50.114;8.662;2022-09-09T17:47:55;21.30;77.90
40702;DHT22;26387;50.114;8.662;2022-09-09T17:50:21;21.20;77.50
40702;DHT22;26387;50.114;8.662;2022-09-09T17:52:47;21.20;78.00
40702;DHT22;26387;50.114;8.662;2022-09-09T17:55:12;21.10;77.80
40702;DHT22;26387;50.114;8.662;2022-09-09T17:57:38;21.00;78.20
40702;DHT22;26387;50.114;8.662;2022-09-09T18:00:04;21.00;78.70
40702;DHT22;26387;50.114;8.662;2022-09-09T18:02:30;20.90;79.00
40702;DHT22;26387;50.114;8.662;2022-09-09T18:04:56;20.90;78.80
40702;DHT22;26387;50.114;8.662;2022-09-09T18:07:21;20.80;78.80
40702;DHT22;26387;50.114;8.662;2022-09-09T18:09:49;20.80;78.70
40702;DHT22;26387;50.114;8.662;2022-09-09T18:12:14;20.80;79.90
40702;DHT22;26387;50.114;8.662;2022-09-09T18:14:40;20.80;79.40
40702;DHT22;26387;50.114;8.662;2022-09-09T18:17:05;20.70;80.60
40702;DHT22;26387;50.114;8.662;2022-09-09T18:19:31;20.60;80.70
40702;DHT22;26387;50.114;8.662;2022-09-09T18:21:57;20.50;81.20
40702;DHT22;26387;50.114;8.662;2022-09-09T18:24:22;20.50;82.50